createdAt,value
2023-03-30T00:03:51.443Z,10.92
2023-03-30T00:08:57.919Z,10.88
2023-03-30T00:14:00.315Z,10.90
2023-03-30T00:19:01.841Z,10.87
2023-03-30T00:24:03.534Z,10.87
2023-03-30T00:29:05.116Z,10.88
2023-03-30T00:34:06.815Z,10.86
2023-03-30T00:39:08.907Z,10.87
2023-03-30T00:44:48.376Z,10.88
2023-03-30T00:49:50.033Z,10.83
2023-03-30T00:54:54.116Z,10.81
2023-03-30T00:59:56.896Z,10.80
2023-03-30T01:04:58.579Z,10.78
2023-03-30T01:10:01.210Z,10.76
2023-03-30T01:15:03.064Z,10.75
2023-03-30T01:20:36.477Z,10.72
2023-03-30T01:26:08.426Z,10.70
2023-03-30T01:31:36.599Z,10.62
2023-03-30T01:37:27.298Z,10.57
2023-03-30T01:42:55.347Z,10.53
2023-03-30T01:48:21.165Z,10.48
2023-03-30T01:53:31.213Z,10.40
2023-03-30T01:58:39.213Z,10.37
2023-03-30T02:03:43.120Z,10.35
2023-03-30T02:08:49.633Z,10.32
2023-03-30T02:13:53.481Z,10.27
2023-03-30T02:18:55.487Z,10.23
2023-03-30T02:23:58.933Z,10.19
2023-03-30T02:29:00.436Z,10.16
2023-03-30T02:34:36.893Z,10.13
2023-03-30T02:39:58.954Z,10.07
2023-03-30T02:45:06.921Z,10.07
2023-03-30T02:50:21.497Z,10.04
2023-03-30T02:55:35.017Z,10.02
2023-03-30T03:00:50.659Z,10.03
2023-03-30T03:06:02.491Z,10.01
2023-03-30T03:11:07.975Z,9.99
2023-03-30T03:16:12.133Z,10.06
2023-03-30T03:21:18.435Z,10.13
2023-03-30T03:26:20.171Z,10.22
2023-03-30T03:31:22.119Z,10.30
2023-03-30T03:36:23.897Z,10.36
2023-03-30T03:41:27.994Z,10.37
2023-03-30T03:46:29.847Z,10.43
2023-03-30T03:51:32.922Z,10.46
2023-03-30T03:56:34.482Z,10.51
2023-03-30T04:01:36.184Z,10.54
2023-03-30T04:06:37.738Z,10.57
2023-03-30T04:11:39.286Z,10.52
2023-03-30T04:16:51.549Z,10.46
2023-03-30T04:22:19.772Z,10.41
2023-03-30T04:27:45.103Z,10.44
2023-03-30T04:33:09.751Z,10.45
2023-03-30T04:38:30.560Z,10.47
2023-03-30T04:44:06.326Z,10.46
2023-03-30T04:49:27.471Z,10.52
2023-03-30T04:54:49.232Z,10.57
2023-03-30T05:00:09.810Z,10.57
2023-03-30T05:05:36.619Z,10.68
2023-03-30T05:11:05.217Z,10.77
2023-03-30T05:16:29.463Z,10.83
2023-03-30T05:21:46.338Z,10.94
2023-03-30T05:27:08.498Z,11.11
2023-03-30T05:32:36.625Z,11.32
2023-03-30T05:37:44.366Z,11.52
2023-03-30T05:43:03.271Z,11.66
2023-03-30T05:48:23.626Z,11.74
2023-03-30T05:53:45.902Z,11.89
2023-03-30T05:59:10.677Z,11.98
2023-03-30T06:04:31.523Z,12.07
2023-03-30T06:09:34.685Z,12.12
2023-03-30T06:14:42.787Z,12.22
2023-03-30T06:20:12.672Z,12.30
2023-03-30T06:25:23.448Z,12.36
2023-03-30T06:30:25.669Z,12.43
2023-03-30T06:35:30.783Z,12.50
2023-03-30T06:40:33.196Z,12.55
2023-03-30T06:45:34.828Z,12.55
2023-03-30T06:50:36.759Z,12.55
2023-03-30T06:55:42.639Z,12.57
2023-03-30T07:00:48.450Z,12.60
2023-03-30T07:06:10.643Z,12.69
2023-03-30T07:11:13.794Z,12.74
2023-03-30T07:16:15.647Z,12.79
2023-03-30T07:21:18.190Z,12.84
2023-03-30T07:26:19.865Z,12.89
2023-03-30T07:31:28.141Z,12.93
2023-03-30T07:36:30.313Z,12.95
2023-03-30T07:41:31.946Z,12.94
2023-03-30T07:46:35.018Z,12.95
2023-03-30T07:51:36.977Z,12.98
2023-03-30T07:56:45.335Z,12.97
2023-03-30T08:01:50.176Z,12.96
2023-03-30T08:07:12.546Z,12.92
2023-03-30T08:12:14.343Z,12.91
2023-03-30T08:17:16.120Z,12.92
2023-03-30T08:22:17.884Z,12.91
2023-03-30T08:27:19.508Z,12.91
2023-03-30T08:32:21.073Z,12.91
2023-03-30T08:37:22.688Z,12.90
2023-03-30T08:42:42.895Z,12.89
2023-03-30T08:47:49.091Z,12.88
2023-03-30T08:52:52.546Z,12.90
2023-03-30T08:58:13.095Z,12.91
2023-03-30T09:03:18.117Z,12.93
2023-03-30T09:08:22.867Z,12.96
2023-03-30T09:13:28.251Z,12.99
2023-03-30T09:18:32.585Z,13.02
2023-03-30T09:23:35.919Z,13.05
2023-03-30T09:28:48.718Z,13.06
2023-03-30T09:34:06.241Z,13.04
2023-03-30T09:39:20.777Z,12.98
2023-03-30T09:44:45.408Z,12.98
2023-03-30T09:49:47.254Z,12.96
2023-03-30T09:54:48.901Z,12.98
2023-03-30T09:59:52.732Z,13.04
2023-03-30T10:04:54.648Z,13.11
2023-03-30T10:09:58.811Z,13.18
2023-03-30T10:15:04.282Z,13.27
2023-03-30T10:20:34.918Z,13.29
2023-03-30T10:25:38.448Z,13.34
2023-03-30T10:30:40.057Z,13.40
2023-03-30T10:35:41.700Z,13.44
2023-03-30T10:40:45.050Z,13.50
2023-03-30T10:45:59.825Z,13.54
2023-03-30T10:51:19.195Z,13.58
2023-03-30T10:56:47.097Z,13.70
2023-03-30T11:02:18.137Z,13.78
2023-03-30T11:07:33.956Z,13.83
2023-03-30T11:12:41.352Z,13.88
2023-03-30T11:17:57.385Z,13.91
2023-03-30T11:23:18.567Z,13.89
2023-03-30T11:28:32.466Z,13.92
2023-03-30T11:33:47.970Z,13.91
2023-03-30T11:38:58.771Z,13.88
2023-03-30T11:44:00.724Z,13.91
2023-03-30T11:49:14.364Z,13.92
2023-03-30T11:54:22.785Z,13.86
2023-03-30T11:59:24.256Z,13.82
2023-03-30T12:04:38.243Z,13.81
2023-03-30T12:09:54.819Z,13.82
2023-03-30T12:15:27.070Z,13.78
2023-03-30T12:20:37.624Z,13.77
2023-03-30T12:26:10.422Z,13.82
2023-03-30T12:31:12.705Z,13.87
2023-03-30T12:36:29.456Z,13.98
2023-03-30T12:41:42.042Z,14.05
2023-03-30T12:47:13.867Z,14.11
2023-03-30T12:52:53.867Z,14.15
2023-03-30T12:58:26.855Z,14.20
2023-03-30T13:03:52.928Z,14.14
2023-03-30T13:09:25.341Z,14.19
2023-03-30T13:14:29.911Z,14.25
2023-03-30T13:19:34.365Z,14.32
2023-03-30T13:24:41.738Z,14.31
2023-03-30T13:30:01.032Z,14.35
2023-03-30T13:35:15.771Z,14.39
2023-03-30T13:41:05.104Z,14.45
2023-03-30T13:46:19.395Z,14.47
2023-03-30T13:51:27.410Z,14.60
2023-03-30T13:56:35.681Z,14.71
2023-03-30T14:01:40.075Z,14.74
2023-03-30T14:06:45.887Z,14.77
2023-03-30T14:11:53.282Z,14.80
2023-03-30T14:16:56.318Z,14.76
2023-03-30T14:22:09.158Z,14.73
2023-03-30T14:27:15.800Z,14.78
2023-03-30T14:32:21.331Z,14.76
2023-03-30T14:37:26.095Z,14.84
2023-03-30T14:42:33.979Z,14.88
2023-03-30T14:47:37.551Z,14.91
2023-03-30T14:52:41.901Z,14.85
2023-03-30T14:57:44.022Z,14.84
2023-03-30T15:02:48.795Z,14.71
2023-03-30T15:07:52.114Z,14.72
2023-03-30T15:12:56.753Z,14.66
2023-03-30T15:17:59.783Z,14.68
2023-03-30T15:23:01.591Z,14.56
2023-03-30T15:28:09.707Z,14.65
2023-03-30T15:33:35.007Z,14.70
2023-03-30T15:38:56.058Z,14.82
2023-03-30T15:44:09.999Z,15.02
2023-03-30T15:49:20.360Z,15.07
2023-03-30T15:54:43.320Z,14.93
2023-03-30T15:59:49.874Z,14.97
2023-03-30T16:04:51.628Z,14.92
2023-03-30T16:09:53.271Z,14.88
2023-03-30T16:14:55.972Z,14.72
2023-03-30T16:19:57.488Z,14.61
2023-03-30T16:25:00.716Z,14.64
2023-03-30T16:30:13.469Z,14.70
2023-03-30T16:35:15.243Z,14.71
2023-03-30T16:40:40.229Z,14.69
2023-03-30T16:45:43.375Z,14.64
2023-03-30T16:50:46.912Z,14.59
2023-03-30T16:55:48.706Z,14.56
2023-03-30T17:00:52.963Z,14.46
2023-03-30T17:05:54.873Z,14.39
2023-03-30T17:11:00.901Z,14.36
2023-03-30T17:16:02.975Z,14.30
2023-03-30T17:21:05.169Z,14.27
2023-03-30T17:26:08.893Z,14.18
2023-03-30T17:31:21.761Z,14.13
2023-03-30T17:36:25.453Z,14.08
2023-03-30T17:41:27.062Z,14.01
2023-03-30T17:46:29.124Z,14.01
2023-03-30T17:51:30.912Z,13.96
2023-03-30T17:56:32.498Z,13.93
2023-03-30T18:01:36.093Z,13.85
2023-03-30T18:06:37.995Z,13.86
2023-03-30T18:11:39.742Z,13.85
2023-03-30T18:16:43.628Z,13.82
2023-03-30T18:21:45.559Z,13.76
2023-03-30T18:26:47.103Z,13.70
2023-03-30T18:31:49.470Z,13.66
2023-03-30T18:36:51.670Z,13.64
2023-03-30T18:41:53.386Z,13.59
2023-03-30T18:46:54.971Z,13.55
2023-03-30T18:51:56.513Z,13.56
2023-03-30T18:56:58.089Z,13.60
2023-03-30T19:01:59.700Z,13.63
2023-03-30T19:07:01.346Z,13.68
2023-03-30T19:12:03.258Z,13.67
2023-03-30T19:17:04.840Z,13.64
2023-03-30T19:22:06.449Z,13.64
2023-03-30T19:27:08.087Z,13.62
2023-03-30T19:32:11.695Z,13.59
2023-03-30T19:37:15.889Z,13.58
2023-03-30T19:42:17.653Z,13.55
2023-03-30T19:47:19.163Z,13.50
2023-03-30T19:52:20.999Z,13.46
2023-03-30T19:57:23.403Z,13.40
2023-03-30T20:02:25.394Z,13.35
2023-03-30T20:07:27.076Z,13.28
2023-03-30T20:12:29.550Z,13.23
2023-03-30T20:17:31.401Z,13.17
2023-03-30T20:22:37.634Z,13.12
2023-03-30T20:27:40.081Z,13.06
2023-03-30T20:32:41.757Z,13.03
2023-03-30T20:37:43.337Z,13.00
2023-03-30T20:42:48.062Z,12.98
2023-03-30T20:47:50.062Z,12.95
2023-03-30T20:52:53.740Z,12.92
2023-03-30T20:57:55.277Z,12.87
2023-03-30T21:02:56.891Z,12.82
2023-03-30T21:08:00.112Z,12.78
2023-03-30T21:13:01.909Z,12.73
2023-03-30T21:18:03.855Z,12.70
2023-03-30T21:23:05.404Z,12.65
2023-03-30T21:28:06.967Z,12.61
2023-03-30T21:33:08.616Z,12.63
2023-03-30T21:38:10.286Z,12.62
2023-03-30T21:43:11.984Z,12.61
2023-03-30T21:48:14.798Z,12.62
2023-03-30T21:53:17.302Z,12.59
2023-03-30T21:58:18.966Z,12.56
2023-03-30T22:03:21.170Z,12.54
2023-03-30T22:08:22.772Z,12.48
2023-03-30T22:13:24.423Z,12.45
2023-03-30T22:18:26.067Z,12.44
2023-03-30T22:23:27.767Z,12.41
2023-03-30T22:28:29.333Z,12.32
2023-03-30T22:33:31.083Z,12.28
2023-03-30T22:38:32.701Z,12.23
2023-03-30T22:43:35.747Z,12.22
2023-03-30T22:48:37.604Z,12.21
2023-03-30T22:53:39.124Z,12.21
2023-03-30T22:58:40.702Z,12.19
2023-03-30T23:03:42.413Z,12.17
2023-03-30T23:08:47.183Z,12.17
2023-03-30T23:13:49.457Z,12.16
2023-03-30T23:18:51.097Z,12.15
2023-03-30T23:23:52.648Z,12.13
2023-03-30T23:28:54.215Z,12.17
2023-03-30T23:33:56.848Z,12.17
2023-03-30T23:38:58.513Z,12.18
2023-03-30T23:44:00.598Z,12.19
2023-03-30T23:49:03.468Z,12.22
2023-03-30T23:54:08.371Z,12.22
2023-03-30T23:59:11.114Z,12.24
